Tiempo atmosférico en la estación meteorológica de Villafáfila, Zamora (690 m.)



Fecha
DESCASC
Temp. máxima en grados centígrados (hora)
DESCASC
Temp. mínima en grados centígrados (hora)
DESCASC
Temp. media en grados centígrados
DESCASC
Racha de viento máxima en m/sg (hora)
DESCASC
Velocidad máxima media en intervalos de 10 minutos(hora)
DESCASC
Precipitaciones diarias en mm
DESCASC
Precipitaciones de 00:00 a 06:00 en mm
DESCASC
Precipitaciones de 06:00 a 12:00 en mm
DESCASC
Precipitaciones de 12:00 a 18:00 en mm
DESCASC
Precipitaciones de 18:00 a 24:00 en mm
DESCASC
14-12-2019 11 (16:10) 7 (03:30) 9 12.78 (14:50) 8.33 (14:40) 0 0 0 0 0
13-12-2019 14.8 (14:50) 8.7 (23:59) 11.8 18.33 (01:50) 11.39 (15:00) 0 0 0 0 0
12-12-2019 11.2 (22:10) 4 (00:00) 7.6 16.11 (13:30) 10.28 (13:30) 0 0 0 0 0
11-12-2019 9.9 (15:10) -0.5 (-00:0) 4.7 11.94 (11:40) 8.61 (11:40) 0.4 0 0.4 0 0
10-12-2019 4.9 (16:50) -2.2 (05:20) 1.4 5 (15:50) 3.06 (15:20) 0 0 0 0 0
09-12-2019 8.3 (15:50) 0.1 (23:59) 4.2 7.78 (11:00) 4.72 (10:50) 0 0 0 0 0
08-12-2019 10.1 (15:50) 1.5 (00:00) 5.8 4.72 (15:00) 3.06 (15:40) 1.4 0 0 1.4 0
07-12-2019 5.7 (17:20) 0.4 (00:00) 3 5.56 (16:10) 3.61 (15:40) 0 0 0 0 0
06-12-2019 10.3 (16:10) -1.1 (-00:0) 4.6 6.11 (00:50) 3.89 (01:20) 0 0 0 0 0
05-12-2019 11.2 (15:10) -1.4 (-00:0) 4.9 12.78 (13:00) 9.72 (13:00) 0 0 0 0 0
04-12-2019 10.9 (15:30) -1.6 (05:30) 4.6 7.5 (11:50) 5 (11:50) 0 0 0 0 0
03-12-2019 7.1 (16:10) -1.6 (-00:0) 2.7 13.06 (13:50) 8.33 (12:30) 0 0 0 0 0
02-12-2019 10.5 (14:30) 1.3 (00:00) 5.9 17.78 (16:50) 11.11 (16:40) 0 0 0 0 0
01-12-2019 9 (13:10) 5.4 (00:00) 7.2 9.72 (15:50) 6.94 (15:20) 3 0.8 1.4 0.8 0
30-11-2019 13 (11:40) 4.4 (00:00) 8.7 13.33 (11:50) 8.33 (11:50) 4.6 0.2 3.6 0.8 0
29-11-2019 15 (14:50) 8.2 (00:00) 11.6 7.78 (00:40) 5 (00:40) 0.8 0 0 0 0.8
28-11-2019 13.6 (15:30) 9.3 (00:00) 11.5 14.72 (11:50) 8.61 (15:40) 0.8 0 0 0.4 0.4
27-11-2019 11.1 (13:20) 7.7 (00:00) 9.4 15.83 (13:50) 10.28 (14:20) 2 0.2 0 1.8 0
26-11-2019 14 (14:20) 8.9 (00:00) 11.4 21.39 (19:50) 11.39 (19:40) 8.6 0 0.4 7.6 0.6
25-11-2019 13.6 (14:00) 9.1 (00:00) 11.4 12.5 (11:50) 7.5 (14:30) 0.2 0 0 0.2 0
24-11-2019 9.4 (16:20) 2.1 (00:00) 5.7 10 (13:40) 7.22 (15:50) 1.6 0 0 0 1.6
23-11-2019 11.8 (13:20) 3.4 (00:00) 7.6 18.33 (00:50) 11.94 (00:40) 0 0 0 0 0
22-11-2019 13.6 (14:50) 5.5 (00:00) 9.6 17.5 (14:40) 11.67 (16:40) 7.6 1.2 3.4 0.8 2.2
21-11-2019 11.2 (15:40) 4.3 (00:00) 7.8 9.72 (15:50) 7.22 (15:50) 0 0 0 0 0
20-11-2019 -- (--) -- (--) -- -- (--) -- (--) -- -- 3.6 0.6 0.6
19-11-2019 7.6 (16:50) -2.8 (-00:0) 2.4 3.61 (09:50) 2.78 (02:40) 0 0 0 0 0
18-11-2019 11.9 (15:00) -0.3 (00:00) 5.8 8.06 (14:00) 5.83 (11:30) 0 0 0 0 0
17-11-2019 -- (--) -- (--) -- -- (--) -- (--) -- 0.2 1.2 -- 0
16-11-2019 -- (--) -- (--) -- -- (--) -- (--) -- 0 -- 0 0

Gráficas

Temp. máximas Temp. mínimas Temp. medias Precipitaciones Rachas de viento máximas Velocidades máximas media en intervalos de 10 minutos

Datos horarios

Fecha y hora oficial Temperatura (ºC) Velocidad del viento (km/h) Dirección del viento Racha (km/h) Dirección de racha Precipitación (mm) Presión (hPa) Tendencia (hPa) Humedad (%)
2019-12-15 23:00:00 8.6 10 Sur 21 Sur 0 -- -- 89
2019-12-15 22:00:00 9 14 Sur 25 Sur 0 -- -- 88
2019-12-15 21:00:00 9.1 18 Sudeste 24 Sudeste 0 -- -- 87
2019-12-15 20:00:00 9.9 13 Sur 27 Sur 0 -- -- 83
2019-12-15 19:00:00 10.6 18 Sur 37 Sur 0 -- -- 81
2019-12-15 18:00:00 11.3 24 Sur 37 Sur 0 -- -- 77
2019-12-15 17:00:00 11.4 15 Sur 33 Sudoeste 0 -- -- 77
2019-12-15 16:00:00 11.6 21 Sur 42 Sudoeste 0 -- -- 75
2019-12-15 15:00:00 11 23 Sudoeste 45 Sudoeste 0 -- -- 80
2019-12-15 14:00:00 10.9 22 Sudoeste 37 Sudoeste 0 -- -- 78
2019-12-15 13:00:00 10.8 24 Sudoeste 43 Sur 0 -- -- 77
2019-12-15 12:00:00 10.9 27 Sudoeste 49 Sudoeste 0 -- -- 76
2019-12-15 11:00:00 10.3 26 Sur 42 Sur 0 -- -- 80
2019-12-15 10:00:00 8.7 17 Sur 34 Sur 0 -- -- 88
2019-12-15 09:00:00 8.2 18 Sur 37 Sur 0 -- -- 91
2019-12-15 08:00:00 8.9 21 Sur 33 Sur 0 -- -- 87
2019-12-15 07:00:00 8.8 17 Sur 35 Sur 0 -- -- 88
2019-12-15 06:00:00 9.1 22 Sur 40 Sudoeste 0 -- -- 88
2019-12-15 05:00:00 9.1 20 Sur 33 Sur 0 -- -- 88
2019-12-15 04:00:00 9 18 Sur 30 Sur 0 -- -- 89
2019-12-15 03:00:00 8.8 18 Sur 33 Sur 0 -- -- 91
2019-12-15 02:00:00 8.9 20 Sur 31 Sudoeste 0 -- -- 90
2019-12-15 01:00:00 8.9 19 Sur 33 Sur 0 -- -- 91
2019-12-15 00:00:00 9.1 21 Sur 32 Sudoeste 0 -- -- 91
2019-12-14 23:00:00 8.9 15 Sudoeste 28 Sudoeste 0 -- -- 94
2019-12-14 22:00:00 9.2 17 Sur 27 Sudoeste 0 -- -- 88
2019-12-14 21:00:00 9.4 15 Sudoeste 26 Sudoeste 0 -- -- 87
2019-12-14 20:00:00 9.5 17 Sudoeste 36 Sudoeste 0 -- -- 87
2019-12-14 19:00:00 9.8 15 Sudoeste 32 Sur 0 -- -- 87
2019-12-14 18:00:00 10.2 17 Sudoeste 35 Sudoeste 0 -- -- 84
2019-12-14 17:00:00 10.7 24 Sudoeste 35 Sudoeste 0 -- -- 80
2019-12-14 16:00:00 10.9 22 Sudoeste 32 Sudoeste 0 -- -- 80
2019-12-14 15:00:00 10.6 23 Sudoeste 46 Sudoeste 0 -- -- 84
2019-12-14 14:00:00 10.4 26 Sudoeste 37 Sudoeste 0 -- -- 87
2019-12-14 13:00:00 9.9 18 Sudoeste 33 Sudoeste 0 -- -- 87
2019-12-14 12:00:00 9.2 16 Sudoeste 31 Sur 0 -- -- 92
2019-12-14 11:00:00 9.9 21 Sur 33 Sudoeste 0 -- -- 87
2019-12-14 10:00:00 8.5 17 Sudoeste 31 Sudoeste 0 -- -- 92
2019-12-14 09:00:00 7.9 15 Sudoeste 35 Sudoeste 0 -- -- 91
2019-12-14 08:00:00 7.8 15 Sur 30 Sur 0 -- -- 91
2019-12-14 07:00:00 8.3 16 Sudoeste 23 Sudoeste 0 -- -- 92
2019-12-14 06:00:00 7.7 17 Sur 35 Sudoeste 0 -- -- 91
2019-12-14 05:00:00 7.8 22 Sudoeste 32 Sudoeste 0 -- -- 90
2019-12-14 04:00:00 7.1 17 Sur 22 Sur 0 -- -- 91
2019-12-14 03:00:00 7.9 18 Sudoeste 30 Sudoeste 0 -- -- 87
2019-12-14 02:00:00 7.9 18 Sudoeste 30 Sudoeste 0 -- -- 86
2019-12-14 01:00:00 8.1 12 Sudoeste 21 Sudoeste 0 -- -- 84
2019-12-14 00:00:00 8.7 14 Sudoeste 28 Sudoeste 0 -- -- 79
2019-12-13 23:00:00 9 18 Sudoeste 45 Oeste 0 -- -- 76
2019-12-13 22:00:00 9.6 26 Sudoeste 44 Sudoeste 0 -- -- 75
2019-12-13 21:00:00 9.8 24 Sudoeste 33 Sudoeste 0 -- -- 83
2019-12-13 20:00:00 10.5 25 Sudoeste 40 Sudoeste 0 -- -- 82
2019-12-13 19:00:00 10.4 22 Sudoeste 36 Sudoeste 0 -- -- 85
2019-12-13 18:00:00 11.6 29 Sudoeste 63 Sudoeste 0 -- -- 80
2019-12-13 17:00:00 12.6 37 Sudoeste 65 Sudoeste 0 -- -- 76
2019-12-13 16:00:00 13.6 40 Sudoeste 58 Sudoeste 0 -- -- 74
2019-12-13 15:00:00 14.2 41 Sudoeste 63 Sudoeste 0 -- -- 72
2019-12-13 14:00:00 14 36 Sudoeste 63 Oeste 0 -- -- 74
2019-12-13 13:00:00 14 31 Sudoeste 49 Sudoeste 0 -- -- 74
2019-12-13 12:00:00 13.6 29 Sudoeste 52 Sudoeste 0 -- -- 76
2019-12-13 11:00:00 12 29 Sudoeste 60 Sudoeste 0 -- -- 81
2019-12-13 10:00:00 10.6 25 Sudoeste 51 Sudoeste 0 -- -- 84
2019-12-13 09:00:00 10.2 27 Sudoeste 51 Sudoeste 0 -- -- 84
2019-12-13 08:00:00 10 32 Sudoeste 47 Sudoeste 0 -- -- 83
2019-12-13 07:00:00 10.4 32 Sudoeste 51 Sudoeste 0 -- -- 81
2019-12-13 06:00:00 10.6 37 Sudoeste 53 Sudoeste 0 -- -- 81
2019-12-13 05:00:00 10.9 33 Sudoeste 53 Sudoeste 0 -- -- 80
2019-12-13 04:00:00 11.2 32 Sudoeste 57 Sudoeste 0 -- -- 82
2019-12-13 03:00:00 11.4 32 Sudoeste 57 Sudoeste 0 -- -- 83
2019-12-13 02:00:00 11.4 33 Sudoeste 66 Sudoeste 0 -- -- 83
2019-12-13 01:00:00 11.4 32 Oeste 48 Sudoeste 0 -- -- 83
2019-12-13 00:00:00 11.2 31 Sudoeste 44 Sudoeste 0 -- -- 84
2019-12-12 23:00:00 11.1 27 Sudoeste 41 Sudoeste 0 -- -- 85
2019-12-12 22:00:00 11.1 28 Sudoeste 48 Sudoeste 0 -- -- 85
2019-12-12 21:00:00 10.8 28 Sudoeste 44 Oeste 0 -- -- 85
2019-12-12 20:00:00 10.7 29 Sudoeste 45 Sudoeste 0 -- -- 85
2019-12-12 19:00:00 10.3 30 Sudoeste 45 Sudoeste 0 -- -- 86
2019-12-12 18:00:00 9.7 29 Sudoeste 48 Sudoeste 0 -- -- 87
2019-12-12 17:00:00 9.5 27 Sudoeste 45 Sudoeste 0 -- -- 87
2019-12-12 16:00:00 9.5 34 Sudoeste 49 Sudoeste 0 -- -- 84
2019-12-12 15:00:00 9.2 32 Sudoeste 53 Sudoeste 0 -- -- 83
2019-12-12 14:00:00 8.6 33 Sudoeste 58 Sudoeste 0 -- -- 84
2019-12-12 13:00:00 8.6 31 Sudoeste 49 Sudoeste 0 -- -- 83
2019-12-12 12:00:00 7.5 25 Sudoeste 42 Sudoeste 0 -- -- 87
2019-12-12 11:00:00 7 30 Sudoeste 46 Sudoeste 0 -- -- 88
2019-12-12 10:00:00 6.4 24 Sudoeste 34 Sudoeste 0 -- -- 91
2019-12-12 09:00:00 5.8 18 Sudoeste 32 Sudoeste 0 -- -- 92
2019-12-12 08:00:00 5.4 22 Sudoeste 36 Sudoeste 0 -- -- 93
2019-12-12 07:00:00 5.3 24 Sudoeste 37 Sudoeste 0 -- -- 92
2019-12-12 06:00:00 4.9 17 Sudoeste 37 Sur 0 -- -- 93
2019-12-12 05:00:00 4.6 16 Sudoeste 36 Sudoeste 0 -- -- 92
2019-12-12 04:00:00 4.8 24 Sudoeste 37 Sudoeste 0 -- -- 91
2019-12-12 03:00:00 4.5 20 Sudoeste 33 Sudoeste 0 -- -- 92
2019-12-12 02:00:00 4.7 21 Sudoeste 32 Sudoeste 0 -- -- 89
2019-12-12 01:00:00 4.4 19 Sudoeste 35 Sudoeste 0 -- -- 91
2019-12-12 00:00:00 4 21 Sudoeste 31 Sudoeste 0 -- -- 91
2019-12-11 23:00:00 4.1 16 Sudoeste 28 Sudoeste 0 -- -- 88
2019-12-11 22:00:00 4 19 Sudoeste 35 Sudoeste 0 -- -- 87
2019-12-11 21:00:00 4.7 18 Sudoeste 30 Oeste 0 -- -- 85
2019-12-11 20:00:00 5 23 Sudoeste 33 Sudoeste 0 -- -- 83
2019-12-11 19:00:00 6.1 21 Sudoeste 34 Sudoeste 0 -- -- 75
2019-12-11 18:00:00 6.8 16 Sudoeste 36 Sudoeste 0 -- -- 70
2019-12-11 17:00:00 9.5 11 Oeste 31 Noroeste 0 -- -- 58
2019-12-11 16:00:00 8.9 21 Noroeste 36 Noroeste 0 -- -- 58
2019-12-11 15:00:00 9.7 23 Noroeste 33 Noroeste 0 -- -- 54
2019-12-11 14:00:00 9.5 21 Noroeste 37 Noroeste 0 -- -- 58
2019-12-11 13:00:00 8.9 26 Noroeste 36 Noroeste 0 -- -- 60
2019-12-11 12:00:00 8 26 Noroeste 43 Noroeste 0.2 -- -- 69
2019-12-11 11:00:00 6.6 19 Noroeste 31 Noroeste 0 -- -- 85
2019-12-11 10:00:00 2.7 3 Noroeste 8 Norte 0 -- -- 96
2019-12-11 09:00:00 2.3 6 Norte 14 Sudoeste 0 -- -- 95
2019-12-11 08:00:00 3.3 5 Sudoeste 27 Noroeste 0 -- -- 95
2019-12-11 07:00:00 4.3 12 Sudoeste 22 Sudoeste 0.2 -- -- 97
2019-12-11 06:00:00 3.1 8 Sur 13 Sur 0 -- -- 98
2019-12-11 05:00:00 2.5 6 Sur 16 Sur 0 -- -- 97
2019-12-11 04:00:00 1.7 8 Sudoeste 13 Sur 0 -- -- 99
2019-12-11 03:00:00 -0.5 4 Este 7 Nordeste 0 -- -- 97
2019-12-11 02:00:00 0.1 2 Noroeste 5 Sudeste 0 -- -- 97
2019-12-11 01:00:00 1.1 0 Calma 6 Sudoeste 0 -- -- 97
2019-12-11 00:00:00 2.2 2 Sudoeste 4 Sudoeste 0 -- -- 97
2019-12-10 23:00:00 2.4 0 Calma 7 Sur 0 -- -- 97
2019-12-10 22:00:00 2.3 3 Sur 8 Sudeste 0 -- -- 97
2019-12-10 21:00:00 3 3 Sudoeste 6 Sur 0 -- -- 96
2019-12-10 20:00:00 3.7 0 Calma 12 Sur 0 -- -- 96
2019-12-10 19:00:00 4.1 5 Sur 12 Sur 0 -- -- 96
2019-12-10 18:00:00 4.6 4 Sudoeste 14 Sudeste 0 -- -- 96
2019-12-10 17:00:00 4.9 10 Sur 14 Sur 0 -- -- 96
2019-12-10 16:00:00 4.3 10 Sudeste 18 Sudeste 0 -- -- 96
2019-12-10 15:00:00 3.9 9 Sudeste 13 Sudeste 0 -- -- 97
2019-12-10 14:00:00 3 5 Sudeste 9 Sur 0 -- -- 98
2019-12-10 13:00:00 1.8 3 Sudeste 12 Sudeste 0 -- -- 97
2019-12-10 12:00:00 0.3 4 Sur 7 Sur 0 -- -- 97
2019-12-10 11:00:00 -0.3 0 Calma 6 Este 0 -- -- 97
2019-12-10 10:00:00 -1.1 4 Nordeste 8 Nordeste 0 -- -- 97
2019-12-10 09:00:00 -1.5 7 Norte 13 Norte 0 -- -- 97
2019-12-10 08:00:00 -1.3 4 Norte 6 Este 0 -- -- 96
2019-12-10 07:00:00 -1.1 3 Nordeste 8 Este 0 -- -- 96
2019-12-10 06:00:00 -1.6 3 Nordeste 7 Este 0 -- -- 97
2019-12-10 05:00:00 -2 3 Este 10 Noroeste 0 -- -- 96
2019-12-10 04:00:00 -1.5 6 Noroeste 13 Noroeste 0 -- -- 95
2019-12-10 03:00:00 -1.4 4 Norte 9 Norte 0 -- -- 95
2019-12-10 02:00:00 -0.8 4 Noroeste 11 Noroeste 0 -- -- 95
2019-12-10 01:00:00 -0.3 4 Nordeste 12 Noroeste 0 -- -- 95
2019-12-10 00:00:00 0.1 10 Noroeste 13 Noroeste 0 -- -- 95
2019-12-09 23:00:00 0.5 8 Noroeste 13 Nordeste 0 -- -- 95
2019-12-09 22:00:00 0.9 6 Nordeste 15 Noroeste 0 -- -- 95
2019-12-09 21:00:00 1.1 9 Noroeste 13 Noroeste 0 -- -- 94
2019-12-09 20:00:00 2.4 4 Oeste 9 Oeste 0 -- -- 93
2019-12-09 19:00:00 3.4 4 Norte 9 Este 0 -- -- 88
2019-12-09 18:00:00 6.3 4 Oeste 8 Sudoeste 0 -- -- 83
2019-12-09 17:00:00 7.9 5 Este 8 Nordeste 0 -- -- 81
2019-12-09 16:00:00 8.2 2 Este 6 Este 0 -- -- 82
2019-12-09 15:00:00 8.1 4 Nordeste 6 Nordeste 0 -- -- 74
2019-12-09 14:00:00 7.6 3 Este 7 Este 0 -- -- 85
2019-12-09 13:00:00 6.4 3 Noroeste 16 Sudoeste 0 -- -- 95
2019-12-09 12:00:00 4.7 14 Sudoeste 25 Sur 0 -- -- 98
2019-12-09 11:00:00 3.5 15 Sudoeste 28 Sudoeste 0 -- -- 98
2019-12-09 10:00:00 2.6 14 Sudoeste 22 Sudoeste 0 -- -- 98
2019-12-09 09:00:00 1.4 10 Sur 20 Sudoeste 0 -- -- 98
2019-12-09 08:00:00 1.5 7 Sudoeste 12 Sudoeste 0 -- -- 98
2019-12-09 07:00:00 2.2 9 Sudoeste 19 Sudoeste 0 -- -- 97
2019-12-09 06:00:00 3.1 12 Sudoeste 19 Sudoeste 0 -- -- 98
2019-12-09 05:00:00 3.5 11 Sudoeste 22 Sudoeste 0 -- -- 97
2019-12-09 04:00:00 4.1 8 Sudoeste 13 Sudoeste 0 -- -- 97
2019-12-09 03:00:00 4.1 10 Sudoeste 16 Oeste 0 -- -- 97
2019-12-09 02:00:00 3.7 4 Sudoeste 8 Sur 0 -- -- 98
2019-12-09 01:00:00 3.1 2 Sudeste 5 Este 0 -- -- 97
2019-12-09 00:00:00 3.4 3 Norte 5 Norte 0 -- -- 97
2019-12-08 23:00:00 4 0 Calma 5 Este 0 -- -- 97
2019-12-08 22:00:00 4.8 3 Este 5 Este 0 -- -- 96
2019-12-08 21:00:00 5.7 0 Calma 9 Norte 0 -- -- 97
2019-12-08 20:00:00 5 6 Nordeste 9 Noroeste 0 -- -- 96
2019-12-08 19:00:00 6.9 7 Noroeste 10 Sudoeste 0 -- -- 94
2019-12-08 18:00:00 9.2 7 Sudoeste 10 Sudoeste 0 -- -- 96
2019-12-08 17:00:00 10 7 Sudoeste 15 Sudoeste 0.2 -- -- 96
2019-12-08 16:00:00 10.1 10 Sudoeste 17 Sudoeste 0 -- -- 97
2019-12-08 15:00:00 8.8 4 Sudoeste 17 Sudoeste 0 -- -- 98
2019-12-08 14:00:00 7.2 4 Norte 6 Sur 0.2 -- -- 97
2019-12-08 13:00:00 6 0 Calma 9 Sudeste 1 -- -- 98
2019-12-08 12:00:00 5.1 5 Noroeste 8 Norte 0 -- -- 98
2019-12-08 11:00:00 4.1 3 Sudeste 6 Sur 0 -- -- 98
2019-12-08 10:00:00 2.9 4 Sur 9 Sudoeste 0 -- -- 98
2019-12-08 09:00:00 2.3 6 Sur 9 Sudeste 0 -- -- 98
2019-12-08 08:00:00 2 4 Sur 6 Sur 0 -- -- 98
2019-12-08 07:00:00 1.7 6 Sur 9 Sur 0 -- -- 98
2019-12-08 06:00:00 1.6 6 Sur 8 Sudeste 0 -- -- 98
2019-12-08 05:00:00 1.5 3 Sur 7 Oeste 0 -- -- 98
2019-12-08 04:00:00 1.6 3 Sudoeste 8 Sudeste 0 -- -- 98
2019-12-08 03:00:00 1.9 6 Sudoeste 9 Sudeste 0 -- -- 97
2019-12-08 02:00:00 2.3 2 Este 7 Oeste 0 -- -- 97
2019-12-08 01:00:00 2.2 4 Norte 8 Noroeste 0 -- -- 98
2019-12-08 00:00:00 2.1 0 Calma 6 Norte 0 -- -- 97
2019-12-07 23:00:00 2.1 3 Norte 9 Noroeste 0 -- -- 97
2019-12-07 22:00:00 2.1 3 Este 6 Sudeste 0 -- -- 97
2019-12-07 21:00:00 3.1 4 Este 6 Este 0 -- -- 97
2019-12-07 20:00:00 3.5 3 Oeste 9 Sudoeste 0 -- -- 97
2019-12-07 19:00:00 4.4 3 Sudeste 8 Sudoeste 0 -- -- 97
2019-12-07 18:00:00 5.3 5 Sudoeste 10 Sudoeste 0 -- -- 97
2019-12-07 17:00:00 5.5 6 Sur 20 Sur 0 -- -- 97
2019-12-07 16:00:00 5.5 12 Sur 19 Sur 0 -- -- 97
2019-12-07 15:00:00 5.1 5 Sur 10 Sur 0 -- -- 97
2019-12-07 14:00:00 4.4 4 Sur 9 Sudeste 0 -- -- 97
2019-12-07 13:00:00 4 2 Nordeste 7 Norte 0 -- -- 97
2019-12-07 12:00:00 3.3 4 Noroeste 12 Norte 0 -- -- 97
2019-12-07 11:00:00 2.2 6 Noroeste 10 Noroeste 0 -- -- 97
2019-12-07 10:00:00 1.7 6 Norte 10 Norte 0 -- -- 97
2019-12-07 09:00:00 0.9 0 Calma 8 Norte 0 -- -- 97
2019-12-07 08:00:00 0.7 0 Calma 8 Noroeste 0 -- -- 96
2019-12-07 07:00:00 0.7 7 Noroeste 10 Noroeste 0 -- -- 96
2019-12-07 06:00:00 0.7 2 Noroeste 6 Noroeste 0 -- -- 95
2019-12-07 05:00:00 0.9 8 Norte 10 Noroeste 0 -- -- 96
2019-12-07 04:00:00 2.1 3 Noroeste 5 Noroeste 0 -- -- 95
2019-12-07 03:00:00 3.1 2 Sur 4 Sudoeste 0 -- -- 96
2019-12-07 02:00:00 2.7 4 Sur 6 Noroeste 0 -- -- 96
2019-12-07 01:00:00 1.9 6 Noroeste 10 Noroeste 0 -- -- 96
2019-12-07 00:00:00 1.3 2 Este 10 Sudeste 0 -- -- 95
2019-12-06 23:00:00 1.1 0 Calma 0 Calma 0 -- -- 93
2019-12-06 22:00:00 1.8 0 Calma -- -- 0 -- -- 93
2019-12-06 21:00:00 2.6 0 Calma 0 Calma 0 -- -- 92
2019-12-06 20:00:00 3.3 0 Calma 0 Calma 0 -- -- 89
2019-12-06 19:00:00 4.9 0 Calma 0 Calma 0 -- -- 87
2019-12-06 18:00:00 7.9 0 Calma 0 Calma 0 -- -- 78
2019-12-06 17:00:00 9.8 0 Calma 2 Nordeste 0 -- -- 73
2019-12-06 16:00:00 10 0 Calma 7 Nordeste 0 -- -- 72
2019-12-06 15:00:00 8.9 3 Norte 6 Norte 0 -- -- 76
2019-12-06 14:00:00 9 2 Noroeste 13 Oeste 0 -- -- 75
2019-12-06 13:00:00 7.5 6 Noroeste 11 Noroeste 0 -- -- 80
2019-12-06 12:00:00 5.6 6 Noroeste 10 Norte 0 -- -- 85
2019-12-06 11:00:00 3.6 9 Norte 13 Noroeste 0 -- -- 92
2019-12-06 10:00:00 1.4 11 Noroeste 14 Noroeste 0 -- -- 96
2019-12-06 09:00:00 -0.3 8 Norte 13 Noroeste 0 -- -- 96
2019-12-06 08:00:00 -0.9 8 Noroeste 10 Noroeste 0 -- -- 95
2019-12-06 07:00:00 -0.5 8 Norte 13 Noroeste 0 -- -- 95
2019-12-06 06:00:00 -0.6 6 Noroeste 9 Norte 0 -- -- 94
2019-12-06 05:00:00 0.3 10 Norte 17 Norte 0 -- -- 94
2019-12-06 04:00:00 0.6 13 Noroeste 17 Noroeste 0 -- -- 95
2019-12-06 03:00:00 1.3 12 Norte 19 Noroeste 0 -- -- 95
2019-12-06 02:00:00 1.6 10 Norte 17 Norte 0 -- -- 93
2019-12-06 01:00:00 2.8 12 Norte 22 Norte 0 -- -- 93
2019-12-06 00:00:00 2.7 14 Norte 19 Nordeste 0 -- -- 92
2019-12-05 23:00:00 4.5 18 Norte 25 Norte 0 -- -- 93
2019-12-05 22:00:00 4.3 10 Norte 19 Nordeste 0 -- -- 90
2019-12-05 21:00:00 5.5 15 Nordeste 23 Nordeste 0 -- -- 89
2019-12-05 20:00:00 6.1 18 Nordeste 26 Nordeste 0 -- -- 87
2019-12-05 19:00:00 6.3 13 Nordeste 21 Nordeste 0 -- -- 86
2019-12-05 18:00:00 7.8 15 Nordeste 38 Nordeste 0 -- -- 79
2019-12-05 17:00:00 10 24 Nordeste 39 Nordeste 0 -- -- 72
2019-12-05 16:00:00 11 22 Nordeste 40 Nordeste 0 -- -- 70
2019-12-05 15:00:00 11 33 Nordeste 45 Nordeste 0 -- -- 67
2019-12-05 14:00:00 10.3 30 Nordeste 46 Nordeste 0 -- -- 70
2019-12-05 13:00:00 9.6 35 Nordeste 46 Nordeste 0 -- -- 72
2019-12-05 12:00:00 8 26 Nordeste 37 Nordeste 0 -- -- 82
2019-12-05 11:00:00 5.7 23 Nordeste 32 Nordeste 0 -- -- 91
2019-12-05 10:00:00 1.3 13 Norte 18 Norte 0 -- -- 95
2019-12-05 09:00:00 -0.5 8 Noroeste 10 Noroeste 0 -- -- 95
2019-12-05 08:00:00 -1.3 0 Calma 12 Noroeste 0 -- -- 93
2019-12-05 07:00:00 -0.8 10 Noroeste 13 Noroeste 0 -- -- 94
2019-12-05 06:00:00 -0.3 8 Noroeste 16 Noroeste 0 -- -- 94
2019-12-05 05:00:00 -0.9 10 Noroeste 13 Noroeste 0 -- -- 94
2019-12-05 04:00:00 -1.1 3 Oeste 10 Noroeste 0 -- -- 93
2019-12-05 03:00:00 -0.8 4 Noroeste 10 Noroeste 0 -- -- 92
2019-12-05 02:00:00 -0.2 6 Noroeste 9 Oeste 0 -- -- 91
2019-12-05 01:00:00 0.3 6 Norte 12 Nordeste 0 -- -- 89
2019-12-05 00:00:00 1.2 8 Nordeste 13 Nordeste 0 -- -- 90
2019-12-04 23:00:00 2.4 11 Norte 19 Nordeste 0 -- -- 84
2019-12-04 22:00:00 4.2 12 Nordeste 20 Nordeste 0 -- -- 79
2019-12-04 21:00:00 4.5 13 Nordeste 18 Nordeste 0 -- -- 82
2019-12-04 20:00:00 4.1 14 Norte 18 Norte 0 -- -- 91
2019-12-04 19:00:00 4.3 12 Norte 16 Norte 0 -- -- 89
2019-12-04 18:00:00 6.9 12 Norte 18 Norte 0 -- -- 85
2019-12-04 17:00:00 9.6 10 Norte 18 Nordeste 0 -- -- 78
2019-12-04 16:00:00 10.5 14 Nordeste 21 Nordeste 0 -- -- 71
2019-12-04 15:00:00 10.3 13 Norte 19 Nordeste 0 -- -- 70
2019-12-04 14:00:00 9.5 14 Norte 22 Norte 0 -- -- 72
2019-12-04 13:00:00 8.4 15 Norte 22 Norte 0 -- -- 74
2019-12-04 12:00:00 6.2 15 Norte 27 Noroeste 0 -- -- 81
2019-12-04 11:00:00 3.2 16 Norte 27 Norte 0 -- -- 87
2019-12-04 10:00:00 0.5 17 Norte 22 Noroeste 0 -- -- 91
2019-12-04 09:00:00 -1.1 14 Noroeste 21 Noroeste 0 -- -- 93
2019-12-04 08:00:00 -1.2 13 Norte 21 Noroeste 0 -- -- 92
2019-12-04 07:00:00 -1.3 14 Noroeste 24 Norte 0 -- -- 93
2019-12-04 06:00:00 -1.6 12 Norte 17 Noroeste 0 -- -- 93
2019-12-04 05:00:00 -1.3 13 Noroeste 17 Noroeste 0 -- -- 93
2019-12-04 04:00:00 -1 12 Noroeste 17 Noroeste 0 -- -- 93
2019-12-04 03:00:00 -0.6 11 Norte 14 Noroeste 0 -- -- 92
2019-12-04 02:00:00 0.6 9 Norte 21 Nordeste 0 -- -- 92
2019-12-04 01:00:00 -0.3 14 Nordeste 21 Nordeste 0 -- -- 93
2019-12-04 00:00:00 -0.5 12 Nordeste 20 Norte 0 -- -- 93
2019-12-03 23:00:00 -1 8 Norte 16 Nordeste 0 -- -- 90
2019-12-03 22:00:00 -0.4 10 Norte 15 Nordeste 0 -- -- 91
2019-12-03 21:00:00 0.2 9 Nordeste 12 Nordeste 0 -- -- 90
2019-12-03 20:00:00 1 8 Nordeste 19 Nordeste 0 -- -- 87
2019-12-03 19:00:00 2.3 12 Nordeste 19 Nordeste 0 -- -- 85
2019-12-03 18:00:00 4.3 14 Nordeste 25 Nordeste 0 -- -- 77
2019-12-03 17:00:00 6 15 Nordeste 33 Nordeste 0 -- -- 71
2019-12-03 16:00:00 7 19 Este 33 Este 0 -- -- 68
2019-12-03 15:00:00 5.7 19 Nordeste 31 Nordeste 0 -- -- 72
2019-12-03 14:00:00 6 24 Nordeste 47 Nordeste 0 -- -- 69
2019-12-03 13:00:00 5.8 24 Nordeste 40 Nordeste 0 -- -- 74
2019-12-03 12:00:00 5 21 Nordeste 32 Nordeste 0 -- -- 78
2019-12-03 11:00:00 3.3 13 Norte 20 Norte 0 -- -- 86
2019-12-03 10:00:00 -0.6 11 Noroeste 18 Noroeste 0 -- -- 93
2019-12-03 09:00:00 -1.3 13 Noroeste 19 Noroeste 0 -- -- 93
2019-12-03 08:00:00 -1.1 11 Noroeste 17 Norte 0 -- -- 93
2019-12-03 07:00:00 -1 14 Norte 17 Norte 0 -- -- 93
2019-12-03 06:00:00 -0.4 13 Nordeste 17 Nordeste 0 -- -- 93
2019-12-03 05:00:00 -0.8 10 Norte 17 Nordeste 0 -- -- 91
2019-12-03 04:00:00 -0.5 13 Norte 18 Norte 0 -- -- 91
2019-12-03 03:00:00 0.8 14 Norte 26 Nordeste 0 -- -- 87
2019-12-03 02:00:00 1.2 19 Nordeste 25 Nordeste 0 -- -- 87
2019-12-03 01:00:00 1.2 16 Nordeste 23 Nordeste 0 -- -- 87
2019-12-03 00:00:00 1.9 15 Nordeste 29 Nordeste 0 -- -- 83
2019-12-02 23:00:00 1.7 13 Nordeste 30 Nordeste 0 -- -- 85
2019-12-02 22:00:00 2.6 22 Nordeste 33 Nordeste 0 -- -- 82
2019-12-02 21:00:00 3.1 23 Nordeste 38 Nordeste 0 -- -- 81
2019-12-02 20:00:00 4.1 28 Nordeste 48 Nordeste 0 -- -- 79
2019-12-02 19:00:00 5 30 Nordeste 48 Este 0 -- -- 80
2019-12-02 18:00:00 6.3 34 Nordeste 54 Nordeste 0 -- -- 75
2019-12-02 17:00:00 8.4 37 Nordeste 64 Este 0 -- -- 70
2019-12-02 16:00:00 9.5 38 Nordeste 55 Nordeste 0 -- -- 66
2019-12-02 15:00:00 10.3 31 Nordeste 50 Nordeste 0 -- -- 68
2019-12-02 14:00:00 10.4 33 Nordeste 50 Nordeste 0 -- -- 70
2019-12-02 13:00:00 9.4 30 Nordeste 49 Nordeste 0 -- -- 72
2019-12-02 12:00:00 8.7 29 Nordeste 43 Nordeste 0 -- -- 76
2019-12-02 11:00:00 7.5 24 Nordeste 33 Nordeste 0 -- -- 82
2019-12-02 10:00:00 4.8 15 Norte 23 Norte 0 -- -- 88
2019-12-02 09:00:00 2.1 17 Norte 27 Norte 0 -- -- 92
2019-12-02 08:00:00 2 14 Norte 27 Norte 0 -- -- 90
2019-12-02 07:00:00 1.5 9 Norte 21 Norte 0 -- -- 91
2019-12-02 06:00:00 1.8 12 Norte 21 Norte 0 -- -- 91
2019-12-02 05:00:00 3 17 Norte 22 Norte 0 -- -- 90
2019-12-02 04:00:00 3.7 9 Norte 18 Nordeste 0 -- -- 91
2019-12-02 03:00:00 3.6 14 Norte 22 Norte 0 -- -- 92
2019-12-02 02:00:00 4.3 15 Norte 23 Norte 0 -- -- 90
2019-12-02 01:00:00 5.9 17 Norte 26 Nordeste 0 -- -- 90
2019-12-02 00:00:00 5.8 16 Norte 23 Nordeste 0 -- -- 92
2019-12-01 23:00:00 6 15 Norte 19 Norte 0 -- -- 91
2019-12-01 22:00:00 5.7 14 Norte 17 Norte 0 -- -- 93
2019-12-01 21:00:00 6.2 13 Norte 18 Norte 0 -- -- 93
2019-12-01 20:00:00 5.6 13 Norte 25 Norte 0 -- -- 94
2019-12-01 19:00:00 5.5 10 Nordeste 16 Nordeste 0 -- -- 93
2019-12-01 18:00:00 6.4 10 Nordeste 24 Nordeste 0 -- -- 90
2019-12-01 17:00:00 7.5 19 Norte 30 Nordeste 0.2 -- -- 89
2019-12-01 16:00:00 7.9 20 Nordeste 35 Nordeste 0 -- -- 89
2019-12-01 15:00:00 8.1 20 Nordeste 26 Nordeste 0.6 -- -- 92
2019-12-01 14:00:00 8.7 18 Norte 22 Norte 0 -- -- 87
2019-12-01 13:00:00 8.9 5 Nordeste 10 Este 0 -- -- 86
2019-12-01 12:00:00 8.3 8 Sudeste 13 Norte 0.2 -- -- 90
2019-12-01 11:00:00 8.3 5 Sur 12 Sur 0 -- -- 88
2019-12-01 10:00:00 7.4 8 Sur 18 Sur 0.2 -- -- 94
2019-12-01 09:00:00 6.6 10 Sur 16 Sur 0.6 -- -- 94
2019-12-01 08:00:00 6.4 11 Sur 24 Sudeste 0 -- -- 93
2019-12-01 07:00:00 6.5 21 Sur 28 Sudeste 0.4 -- -- 92
2019-12-01 06:00:00 6.3 16 Sudeste 26 Sudeste 0 -- -- 93
2019-12-01 05:00:00 6.2 19 Sur 28 Sur 0.4 -- -- 93
2019-12-01 04:00:00 6.3 17 Sur 26 Sur 0.4 -- -- 93
2019-12-01 03:00:00 6.6 16 Sur 26 Sur 0 -- -- 93
2019-12-01 02:00:00 5.7 5 Sudeste 19 Sur 0 -- -- 93
2019-12-01 01:00:00 5.9 14 Sur 24 Sur 0 -- -- 93
2019-12-01 00:00:00 5.4 12 Sur 18 Sur 0 -- -- 94
2019-11-30 23:00:00 5.5 7 Sur 21 Sudoeste 0 -- -- 89
2019-11-30 22:00:00 6.1 17 Sudoeste 23 Sudoeste 0 -- -- 87
2019-11-30 21:00:00 6.7 14 Sur 23 Sudoeste 0 -- -- 87
2019-11-30 20:00:00 7 13 Sudoeste 26 Sudoeste 0 -- -- 88
2019-11-30 19:00:00 7.6 17 Sudoeste 23 Sudoeste 0 -- -- 87
2019-11-30 18:00:00 8.6 13 Sudoeste 24 Sudoeste 0 -- -- 84
2019-11-30 17:00:00 10.3 15 Sudoeste 33 Sudoeste 0 -- -- 76
2019-11-30 16:00:00 10.3 24 Sudoeste 37 Oeste 0.2 -- -- 76
2019-11-30 15:00:00 10.8 16 Oeste 44 Oeste 0 -- -- 85
2019-11-30 14:00:00 10.9 28 Oeste 43 Sudoeste 0.4 -- -- 85
2019-11-30 13:00:00 11.7 24 Sudoeste 39 Oeste 0.2 -- -- 84
2019-11-30 12:00:00 12.1 29 Sudoeste 48 Sudoeste 0.4 -- -- 89
2019-11-30 11:00:00 12 21 Sur 39 Sur 0.4 -- -- 95
2019-11-30 10:00:00 11.8 21 Sur 40 Sur 0.2 -- -- 95
2019-11-30 09:00:00 11.6 23 Sur 35 Sudoeste 1.4 -- -- 95
2019-11-30 08:00:00 11.6 26 Sur 39 Sudoeste 0.8 -- -- 94
2019-11-30 07:00:00 11.5 20 Sur 33 Sur 0.4 -- -- 94
2019-11-30 06:00:00 11.6 22 Sur 35 Sur 0 -- -- 93
2019-11-30 05:00:00 11.7 16 Sur 32 Sur 0 -- -- 92
2019-11-30 04:00:00 11.9 23 Sudoeste 39 Sur 0 -- -- 92
2019-11-30 03:00:00 12.2 17 Sudoeste 29 Sudoeste 0 -- -- 92
2019-11-30 02:00:00 12.1 13 Sur 30 Sudoeste 0 -- -- 95
2019-11-30 01:00:00 12 15 Sur 26 Sur 0.2 -- -- 95
2019-11-30 00:00:00 10.8 3 Sur 8 Sur 0.2 -- -- 95
2019-11-29 23:00:00 11.2 6 Sur 9 Sudoeste 0.6 -- -- 94
2019-11-29 22:00:00 11.2 7 Sudoeste 12 Sudoeste 0 -- -- 94
2019-11-29 21:00:00 11 6 Sur 11 Sudoeste 0 -- -- 92
2019-11-29 20:00:00 11.4 6 Sur 13 Sudoeste 0 -- -- 90
2019-11-29 19:00:00 11.3 4 Sur 10 Sudoeste 0 -- -- 87
2019-11-29 18:00:00 12.6 8 Sudoeste 19 Sudoeste 0 -- -- 83
2019-11-29 17:00:00 13.7 12 Sudoeste 22 Sudoeste 0 -- -- 77
2019-11-29 16:00:00 14.4 10 Sudoeste 21 Sudoeste 0 -- -- 74
2019-11-29 15:00:00 14.9 12 Sudoeste 19 Oeste 0 -- -- 71
2019-11-29 14:00:00 13.4 9 Sudoeste 17 Sudoeste 0 -- -- 83
2019-11-29 13:00:00 12.4 6 Oeste 11 Oeste 0 -- -- 88
2019-11-29 12:00:00 11.5 3 Sur 6 Sur 0 -- -- 93
2019-11-29 11:00:00 10.3 3 Oeste 9 Sur 0 -- -- 96
2019-11-29 10:00:00 8.9 6 Sur 7 Sudeste 0 -- -- 96
2019-11-29 09:00:00 8.3 3 Norte 10 Norte 0 -- -- 96
2019-11-29 08:00:00 8.5 5 Oeste 8 Sudoeste 0 -- -- 96
2019-11-29 07:00:00 8.7 2 Noroeste 10 Sudoeste 0 -- -- 95
2019-11-29 06:00:00 9.3 9 Sur 13 Sudoeste 0 -- -- 95
2019-11-29 05:00:00 9 4 Sur 8 Noroeste 0 -- -- 96
2019-11-29 04:00:00 9.1 7 Noroeste 10 Sudoeste 0 -- -- 95
2019-11-29 03:00:00 10.1 4 Oeste 14 Sudoeste 0 -- -- 95
2019-11-29 02:00:00 10.8 10 Sudoeste 15 Sudoeste 0 -- -- 96
2019-11-29 01:00:00 11 11 Sudoeste 28 Sudoeste 0 -- -- 96
2019-11-29 00:00:00 11 17 Sudoeste 27 Sudoeste 0 -- -- 96
2019-11-28 23:00:00 10.8 13 Sur 32 Sudoeste 0 -- -- 95
2019-11-28 22:00:00 10.8 17 Sudoeste 32 Sudoeste 0.2 -- -- 95
2019-11-28 21:00:00 10.8 20 Sudoeste 39 Sur 0 -- -- 94
2019-11-28 20:00:00 10.9 22 Sudoeste 39 Sudoeste 0.2 -- -- 93
2019-11-28 19:00:00 11.3 20 Sudoeste 33 Sudoeste 0 -- -- 89
2019-11-28 18:00:00 11.1 15 Sudoeste 31 Sudoeste 0 -- -- 92
2019-11-28 17:00:00 11.3 17 Sudoeste 40 Sudoeste 0.4 -- -- 91
2019-11-28 16:00:00 13.1 29 Sudoeste 49 Sudoeste 0 -- -- 75
2019-11-28 15:00:00 13 27 Sudoeste 46 Sudoeste 0 -- -- 80
2019-11-28 14:00:00 12.5 25 Sudoeste 41 Sudoeste 0 -- -- 82
2019-11-28 13:00:00 11.8 22 Sudoeste 40 Sudoeste 0 -- -- 86
2019-11-28 12:00:00 11.4 22 Sudoeste 53 Sur 0 -- -- 88
2019-11-28 11:00:00 10.9 23 Sudoeste 35 Sudoeste 0 -- -- 89
2019-11-28 10:00:00 10.7 23 Sudoeste 33 Sudoeste 0 -- -- 90
2019-11-28 09:00:00 10 17 Sur 32 Sur 0 -- -- 93
2019-11-28 08:00:00 9.9 15 Sudoeste 32 Sudoeste 0 -- -- 92
2019-11-28 07:00:00 9.7 18 Sudoeste 32 Sudoeste 0 -- -- 94
2019-11-28 06:00:00 9.4 17 Sudoeste 35 Sur 0 -- -- 94
2019-11-28 05:00:00 9.5 22 Sudoeste 35 Sur 0 -- -- 93
2019-11-28 04:00:00 9.5 19 Sudoeste 30 Sudoeste 0 -- -- 92
2019-11-28 03:00:00 9.6 14 Sudoeste 31 Sudoeste 0 -- -- 90
2019-11-28 02:00:00 9.7 18 Sudoeste 35 Sudoeste 0 -- -- 88
2019-11-28 01:00:00 9.5 16 Sudoeste 33 Sudoeste 0 -- -- 88
2019-11-28 00:00:00 9.3 27 Sudoeste 39 Sudoeste 0 -- -- 88
2019-11-27 23:00:00 8.7 24 Sudoeste 36 Sudoeste 0 -- -- 90
2019-11-27 22:00:00 8.6 16 Sudoeste 27 Sudoeste 0 -- -- 89
2019-11-27 21:00:00 8.7 10 Sur 23 Sudoeste 0 -- -- 89
2019-11-27 20:00:00 8.8 18 Sudoeste 38 Sudoeste 0 -- -- 89
2019-11-27 19:00:00 9.8 23 Sudoeste 37 Sudoeste 0 -- -- 83
2019-11-27 18:00:00 10.3 24 Sudoeste 42 Sudoeste 0 -- -- 81
2019-11-27 17:00:00 10.8 23 Sudoeste 50 Sudoeste 0.2 -- -- 83
2019-11-27 16:00:00 9.8 18 Sudoeste 35 Sudoeste 1.4 -- -- 91
2019-11-27 15:00:00 10 24 Sudoeste 50 Sudoeste 0.2 -- -- 90
2019-11-27 14:00:00 11.1 31 Sudoeste 57 Sudoeste 0 -- -- 79
2019-11-27 06:00:00 -- -- -- -- -- -- -- -- --
2019-11-27 05:00:00 8.1 19 Sudoeste 39 Sudoeste 0 -- -- 84
2019-11-27 04:00:00 8 24 Sudoeste 42 Sudoeste 0 -- -- 84
2019-11-27 03:00:00 7.8 29 Sudoeste 48 Sudoeste 0 -- -- 83
2019-11-27 02:00:00 8.5 25 Sudoeste 47 Sudoeste 0 -- -- 84
2019-11-27 01:00:00 9.2 33 Sudoeste 48 Sudoeste 0 -- -- 83
2019-11-27 00:00:00 8.9 24 Sudoeste 34 Sudoeste 0 -- -- 86
2019-11-26 23:00:00 9.5 25 Sudoeste 45 Sudoeste 0 -- -- 86
2019-11-26 22:00:00 9.9 24 Sudoeste 46 Sudoeste 0 -- -- 89
2019-11-26 21:00:00 10 30 Sudoeste 55 Sudoeste 0.4 -- -- 87
2019-11-26 20:00:00 11.4 33 Sudoeste 77 Sudoeste 0.2 -- -- 88
2019-11-26 19:00:00 12 30 Sudoeste 58 Sudoeste 0 -- -- 80
2019-11-26 18:00:00 12.8 33 Sudoeste 53 Sudoeste 0 -- -- 79
2019-11-26 17:00:00 13.9 32 Sudoeste 45 Sudoeste 0.4 -- -- 83
2019-11-26 16:00:00 13.3 36 Sudoeste 51 Sudoeste 6.6 -- -- 94
2019-11-26 15:00:00 13.6 23 Sudoeste 54 Sudoeste 0.2 -- -- 92
2019-11-26 14:00:00 13.7 23 Sudoeste 40 Sudoeste 0.2 -- -- 93
2019-11-26 13:00:00 13.1 21 Sur 41 Sudoeste 0.2 -- -- 93
2019-11-26 12:00:00 13.1 22 Sur 39 Sur 0 -- -- 92
2019-11-26 11:00:00 12.3 18 Sur 38 Sudoeste 0 -- -- 92
2019-11-26 10:00:00 12.1 19 Sur 34 Sur 0 -- -- 93
2019-11-26 09:00:00 11.1 15 Sur 29 Sur 0.4 -- -- 96
2019-11-26 08:00:00 10.8 16 Sur 26 Sur 0 -- -- 95
2019-11-26 07:00:00 10.4 16 Sur 34 Sur 0 -- -- 94
2019-11-26 06:00:00 10.3 23 Sur 35 Sur 0 -- -- 92
2019-11-26 05:00:00 9.7 8 Sur 18 Sur 0 -- -- 93
2019-11-26 04:00:00 9.8 11 Sudeste 23 Sur 0 -- -- 92
2019-11-26 03:00:00 9.9 6 Sur 20 Sur 0 -- -- 92
2019-11-26 02:00:00 10.1 14 Sur 26 Sudoeste 0 -- -- 93
2019-11-26 01:00:00 9.3 14 Sur 20 Sur 0 -- -- 93
2019-11-26 00:00:00 9.6 14 Sur 26 Sur 0 -- -- 91
2019-11-25 23:00:00 9.1 11 Sudoeste 18 Sudoeste 0 -- -- 91
2019-11-25 22:00:00 9.4 10 Sur 21 Sur 0 -- -- 88
2019-11-25 21:00:00 9.4 7 Sur 19 Sudoeste 0 -- -- 87
2019-11-25 20:00:00 10.1 15 Sudoeste 21 Sudoeste 0 -- -- 86
2019-11-25 19:00:00 10.6 8 Sudoeste 22 Sudoeste 0 -- -- 84
2019-11-25 18:00:00 11.4 14 Sudoeste 28 Sudoeste 0 -- -- 82
2019-11-25 17:00:00 12.3 21 Sudoeste 31 Oeste 0 -- -- 77
2019-11-25 16:00:00 12.8 22 Sudoeste 34 Sudoeste 0 -- -- 74
2019-11-25 15:00:00 13.3 25 Sudoeste 37 Sudoeste 0 -- -- 73
2019-11-25 14:00:00 13.6 24 Sudoeste 42 Sudoeste 0.2 -- -- 74
2019-11-25 13:00:00 12.9 18 Sudoeste 34 Sudoeste 0 -- -- 79
2019-11-25 12:00:00 12.6 23 Sudoeste 45 Sudoeste 0 -- -- 80
2019-11-25 11:00:00 11.4 11 Sudoeste 19 Sur 0 -- -- 92
2019-11-25 10:00:00 10.6 12 Sudoeste 19 Sudoeste 0 -- -- 93
2019-11-25 09:00:00 9.5 13 Sur 26 Sudoeste 0 -- -- 95
2019-11-25 08:00:00 9.6 15 Sur 26 Sur 0 -- -- 94
2019-11-25 07:00:00 9.8 10 Sur 22 Sudoeste 0 -- -- 93
2019-11-25 06:00:00 9.6 13 Sudoeste 26 Sudoeste 0 -- -- 92
2019-11-25 05:00:00 10 11 Sudeste 36 Sudoeste 0 -- -- 92
2019-11-25 04:00:00 10.2 20 Sudoeste 35 Sudoeste 0 -- -- 93
2019-11-25 03:00:00 9.6 10 Sur 29 Sudoeste 0 -- -- 95
2019-11-25 02:00:00 10.1 18 Sur 29 Sur 0 -- -- 95
2019-11-25 01:00:00 9.4 5 Sur 15 Sur 0 -- -- 96
2019-11-25 00:00:00 9.1 12 Sur 18 Sur 0.4 -- -- 95
2019-11-24 23:00:00 9 11 Sur 29 Sudoeste 1 -- -- 95
2019-11-24 22:00:00 8.7 18 Sur 28 Sur 0.2 -- -- 94
2019-11-24 21:00:00 8.6 15 Sur 24 Sur 0 -- -- 91
2019-11-24 20:00:00 8.8 15 Sur 31 Sudoeste 0 -- -- 89
2019-11-24 19:00:00 8.9 15 Sur 29 Sudoeste 0 -- -- 89
2019-11-24 18:00:00 9 13 Sudoeste 20 Sur 0 -- -- 84
2019-11-24 17:00:00 9.1 13 Sudoeste 28 Sudoeste 0 -- -- 81
2019-11-24 16:00:00 9.2 21 Sudoeste 35 Sudoeste 0 -- -- 80
2019-11-24 15:00:00 8.7 17 Sudoeste 35 Sudoeste 0 -- -- 81
2019-11-24 14:00:00 8.3 22 Sudoeste 36 Sudoeste 0 -- -- 80
2019-11-24 13:00:00 8.1 22 Sudoeste 30 Sudoeste 0 -- -- 81
2019-11-24 12:00:00 7.1 18 Sudoeste 27 Sudoeste 0 -- -- 86
2019-11-24 11:00:00 5.7 17 Sudoeste 25 Sudoeste 0 -- -- 92
2019-11-24 10:00:00 4.1 10 Sur 16 Sur 0 -- -- 94
2019-11-24 09:00:00 2.8 9 Sur 17 Sudoeste 0 -- -- 94
2019-11-24 08:00:00 2.5 7 Sudoeste 11 Sur 0 -- -- 92
2019-11-24 07:00:00 2.4 7 Sudeste 21 Sudoeste 0 -- -- 89
2019-11-24 06:00:00 3.1 11 Sudoeste 18 Sudoeste 0 -- -- 91
2019-11-24 05:00:00 2.2 5 Sudoeste 18 Sudoeste 0 -- -- 91
2019-11-24 04:00:00 3.4 14 Sudoeste 22 Oeste 0 -- -- 93
2019-11-24 03:00:00 2.9 9 Sur 17 Sudoeste 0 -- -- 93
2019-11-24 02:00:00 3.7 10 Sudoeste 21 Sudoeste 0 -- -- 92
2019-11-24 01:00:00 3.4 11 Sudoeste 16 Sudoeste 0 -- -- 91
2019-11-24 00:00:00 3.9 10 Oeste 14 Sudoeste 0 -- -- 89
2019-11-23 23:00:00 3.6 10 Sudoeste 21 Sudoeste 0 -- -- 90
2019-11-23 22:00:00 4 6 Sur 14 Sudoeste 0 -- -- 87
2019-11-23 21:00:00 5.4 8 Sudoeste 26 Oeste 0 -- -- 81
2019-11-23 20:00:00 6.4 22 Oeste 32 Oeste 0 -- -- 77
2019-11-23 19:00:00 6.9 16 Oeste 26 Oeste 0 -- -- 72
2019-11-23 18:00:00 8.9 17 Oeste 33 Sudoeste 0 -- -- 64
2019-11-23 17:00:00 11.6 24 Oeste 33 Oeste 0 -- -- 58
2019-11-23 16:00:00 10.4 25 Noroeste 43 Oeste 0 -- -- 58
2019-11-23 15:00:00 11.6 26 Oeste 44 Oeste 0 -- -- 56
2019-11-23 14:00:00 11.6 23 Oeste 39 Oeste 0 -- -- 56
2019-11-23 13:00:00 11.1 31 Oeste 43 Oeste 0 -- -- 59
2019-11-23 12:00:00 10.7 19 Oeste 36 Oeste 0 -- -- 60
2019-11-23 11:00:00 8 19 Sudoeste 32 Sudoeste 0 -- -- 71
2019-11-23 10:00:00 6 14 Sudoeste 26 Oeste 0 -- -- 79
2019-11-23 09:00:00 4.6 17 Sudoeste 31 Sudoeste 0 -- -- 80
2019-11-23 08:00:00 4.1 20 Oeste 31 Oeste 0 -- -- 81
2019-11-23 07:00:00 4.2 19 Sudoeste 37 Oeste 0 -- -- 81
2019-11-23 06:00:00 4.9 21 Oeste 38 Oeste 0 -- -- 79
2019-11-23 05:00:00 5.4 28 Sudoeste 49 Sudoeste 0 -- -- 82
2019-11-23 04:00:00 5.7 33 Sudoeste 54 Oeste 0 -- -- 82
2019-11-23 03:00:00 6.1 37 Oeste 62 Oeste 0 -- -- 81
2019-11-23 02:00:00 6.2 39 Sudoeste 62 Sudoeste 0 -- -- 80
2019-11-23 01:00:00 6.4 39 Sudoeste 66 Oeste 0 -- -- 78
2019-11-23 00:00:00 7 35 Sudoeste 55 Sudoeste 0 -- -- 83
2019-11-22 23:00:00 7.8 34 Sudoeste 50 Sudoeste 0 -- -- 84
2019-11-22 22:00:00 8.1 28 Sudoeste 42 Sudoeste 0 -- -- 88
2019-11-22 21:00:00 8.3 30 Sudoeste 53 Sudoeste 2.2 -- -- 88
2019-11-22 20:00:00 8.5 22 Sudoeste 45 Sudoeste 0 -- -- 87
2019-11-22 19:00:00 8.5 26 Sudoeste 54 Sudoeste 0 -- -- 85
2019-11-22 18:00:00 8.6 31 Sudoeste 52 Sudoeste 0 -- -- 80
2019-11-22 17:00:00 9.8 36 Sudoeste 61 Sudoeste 0 -- -- 75
2019-11-22 16:00:00 12.1 36 Sudoeste 60 Sudoeste 0 -- -- 74
2019-11-22 15:00:00 13.6 35 Sudoeste 63 Sudoeste 0 -- -- 74
2019-11-22 14:00:00 12.8 33 Sudoeste 51 Sudoeste 0 -- -- 83
2019-11-22 13:00:00 11.4 33 Sudoeste 55 Sur 0.8 -- -- 90
2019-11-22 12:00:00 10.7 27 Sur 43 Sur 0.8 -- -- 88
2019-11-22 11:00:00 10.2 27 Sur 42 Sur 0.2 -- -- 88
2019-11-22 10:00:00 8.8 27 Sur 42 Sur 0 -- -- 90
2019-11-22 09:00:00 7.9 28 Sur 55 Sudeste 0.2 -- -- 91
2019-11-22 08:00:00 7.3 28 Sudeste 40 Sudeste 0.4 -- -- 93
2019-11-22 07:00:00 7 21 Sudeste 28 Sudeste 1.8 -- -- 94
2019-11-22 06:00:00 6.9 18 Sur 26 Sudeste 1 -- -- 94
2019-11-22 05:00:00 6.8 14 Sur 22 Sur 0.2 -- -- 93
2019-11-22 04:00:00 6.8 10 Sudeste 20 Sur 0 -- -- 93
2019-11-22 03:00:00 6.8 12 Sur 23 Sur 0 -- -- 93
2019-11-22 02:00:00 6 8 Sur 16 Sur 0 -- -- 93
2019-11-22 01:00:00 6.1 8 Sur 16 Sur 0 -- -- 92
2019-11-22 00:00:00 5.5 4 Sur 11 Sur 0 -- -- 92
2019-11-21 23:00:00 5.2 8 Sur 10 Sur 0 -- -- 91
2019-11-21 22:00:00 4.8 5 Sudoeste 10 Sur 0 -- -- 90
2019-11-21 21:00:00 4.5 5 Sur 14 Sur 0 -- -- 90
2019-11-21 20:00:00 5.1 4 Sudoeste 11 Sudoeste 0 -- -- 87
2019-11-21 19:00:00 6.6 8 Sur 15 Sur 0 -- -- 79
2019-11-21 18:00:00 8.2 12 Sudoeste 21 Sudoeste 0 -- -- 73
2019-11-21 17:00:00 9.9 17 Sudoeste 32 Sudoeste 0 -- -- 64
2019-11-21 16:00:00 10.5 22 Sudoeste 35 Sudoeste 0 -- -- 64
2019-11-21 15:00:00 11 22 Oeste 31 Oeste 0 -- -- 61
2019-11-21 14:00:00 10.5 18 Oeste 30 Oeste 0 -- -- 63
2019-11-21 13:00:00 9.8 15 Sudoeste 29 Sudoeste 0 -- -- 69
2019-11-21 12:00:00 8.9 19 Sudoeste 27 Sudoeste 0 -- -- 75
2019-11-21 11:00:00 8.3 15 Oeste 22 Sudoeste 0 -- -- 79
2019-11-21 10:00:00 6.4 12 Sudoeste 18 Sudoeste 0 -- -- 95
2019-11-21 09:00:00 5.5 10 Sur 20 Sur 0 -- -- 95
2019-11-21 08:00:00 -- -- -- -- -- -- -- -- --
2019-11-21 07:00:00 -- -- -- -- -- -- -- -- --
2019-11-21 06:00:00 -- -- -- -- -- -- -- -- --
2019-11-21 05:00:00 -- -- -- -- -- -- -- -- --
2019-11-21 04:00:00 -- -- -- -- -- -- -- -- --
2019-11-21 03:00:00 -- -- -- -- -- -- -- -- --
2019-11-21 02:00:00 -- -- -- -- -- -- -- -- --
2019-11-21 01:00:00 -- -- -- -- -- -- -- -- --
2019-11-21 00:00:00 -- -- -- -- -- -- -- -- --
2019-11-20 23:00:00 -- -- -- -- -- -- -- -- --
2019-11-20 22:00:00 -- -- -- -- -- -- -- -- --
2019-11-20 21:00:00 -- -- -- -- -- -- -- -- --
2019-11-20 20:00:00 -- -- -- -- -- -- -- -- --
2019-11-20 19:00:00 7 10 Sur 22 Sur 0 -- -- 89
2019-11-20 18:00:00 7.4 10 Sudoeste 16 Sudoeste 0 -- -- 88
2019-11-20 17:00:00 7.3 11 Sur 20 Sur 0 -- -- 91
2019-11-20 16:00:00 6.7 13 Sur 24 Sudoeste 0 -- -- 93
2019-11-20 15:00:00 6.7 13 Sur 25 Sur -- -- -- 94
2019-11-20 14:00:00 6.5 17 Sur 25 Sur 0.2 -- -- 92
2019-11-20 13:00:00 6.1 14 Sur 26 Sur 0.2 -- -- 92
2019-11-20 12:00:00 6.1 16 Sur 26 Sudoeste 1.2 -- -- 93
2019-11-20 11:00:00 6.4 15 Sur 24 Sur 0.4 -- -- 94
2019-11-20 10:00:00 5.9 14 Sudeste 18 Sudeste 0.4 -- -- 95
2019-11-20 09:00:00 5.4 8 Sudeste 12 Sur 0.8 -- -- 95
2019-11-20 08:00:00 5.2 8 Sudeste 12 Sudeste 0.8 -- -- 95
2019-11-20 07:00:00 5.1 9 Sudeste 13 Este 0 -- -- 95
2019-11-20 06:00:00 -- -- -- -- -- -- -- -- --
2019-11-20 05:00:00 5.2 6 Sur 11 Sur 0 -- -- 94
2019-11-20 04:00:00 5.3 7 Sur 13 Sur 0.6 -- -- 94
2019-11-20 03:00:00 5.4 8 Sudeste 12 Sur 0 -- -- 93
2019-11-20 02:00:00 5.6 3 Sur 5 Sur 1 -- -- 91
2019-11-20 01:00:00 5.8 4 Sudoeste 5 Sudoeste 0 -- -- 90
2019-11-20 00:00:00 6 3 Sur 9 Sur 0 -- -- 88
2019-11-19 23:00:00 6.2 6 Sur 10 Sudeste 0 -- -- 86
2019-11-19 22:00:00 6.4 3 Sur 7 Sur -- -- -- 86
2019-11-19 21:00:00 6.5 3 Sur 6 Sur 0 -- -- 85
2019-11-19 20:00:00 6.7 4 Sur 9 Sur 0 -- -- 82
2019-11-19 19:00:00 6.7 5 Sur 7 Sur 0 -- -- 82
2019-11-19 18:00:00 7.2 4 Sur 10 Sur 0 -- -- 79
2019-11-19 17:00:00 7.6 6 Sur 11 Sur 0 -- -- 76
2019-11-19 16:00:00 7.2 8 Sur 12 Sur 0 -- -- 76
2019-11-19 15:00:00 7.1 9 Sur 12 Sur 0 -- -- 77
2019-11-19 14:00:00 6.5 5 Sur 9 Sur 0 -- -- 77
2019-11-19 13:00:00 4.8 4 Sudeste 8 Sudeste 0 -- -- 84
2019-11-19 12:00:00 3.4 4 Este 9 Este 0 -- -- 87
2019-11-19 11:00:00 1.2 6 Norte 10 Noroeste 0 -- -- 93
2019-11-19 10:00:00 -0.7 9 Noroeste 13 Noroeste 0 -- -- 94
2019-11-19 09:00:00 -2.4 5 Noroeste 6 Noroeste 0 -- -- 94
2019-11-19 08:00:00 -2.8 4 Noroeste 10 Noroeste 0 -- -- 93
2019-11-19 07:00:00 -2.4 4 Noroeste 5 Norte 0 -- -- 93
2019-11-19 06:00:00 -2.3 6 Oeste 11 Oeste 0 -- -- 93
2019-11-19 05:00:00 -2.1 4 Norte 7 Noroeste 0 -- -- 93
2019-11-19 04:00:00 -2 4 Noroeste 10 Noroeste 0 -- -- 92
2019-11-19 03:00:00 -1.4 6 Norte 12 Norte 0 -- -- 92
2019-11-19 02:00:00 -1 7 Norte 9 Norte 0 -- -- 92
2019-11-19 01:00:00 -0.7 6 Oeste 10 Oeste 0 -- -- 91
2019-11-19 00:00:00 -0.2 6 Este 13 Norte 0 -- -- 90
2019-11-18 23:00:00 0.6 12 Norte 16 Norte 0 -- -- 90
2019-11-18 22:00:00 1.3 12 Norte 17 Norte 0 -- -- 87
2019-11-18 21:00:00 2.5 13 Norte 20 Norte 0 -- -- 86
2019-11-18 20:00:00 3 7 Norte 15 Norte 0 -- -- 83
2019-11-18 19:00:00 4.2 8 Noroeste 12 Norte 0 -- -- 78
2019-11-18 18:00:00 7.6 11 Noroeste 24 Noroeste 0 -- -- 66
2019-11-18 17:00:00 10.6 13 Noroeste 25 Noroeste 0 -- -- 55
2019-11-18 16:00:00 11.6 15 Noroeste 26 Norte 0 -- -- 52
2019-11-18 15:00:00 11.9 15 Norte 28 Norte 0 -- -- 53
2019-11-18 14:00:00 11.2 19 Norte 29 Norte 0 -- -- 55
2019-11-18 13:00:00 10.5 16 Norte 27 Norte 0 -- -- 60
2019-11-18 12:00:00 9.4 18 Norte 27 Norte 0 -- -- 64
2019-11-18 11:00:00 7.1 8 Norte 19 Noroeste 0 -- -- 75
2019-11-18 10:00:00 4.2 8 Norte 13 Norte 0 -- -- 85
2019-11-18 09:00:00 0.8 4 Sur 9 Sur 0 -- -- 91
2019-11-18 08:00:00 -0.1 8 Noroeste 11 Noroeste 0 -- -- 91
2019-11-18 07:00:00 0.3 5 Noroeste 13 Noroeste 0 -- -- 91
2019-11-18 06:00:00 0.5 8 Noroeste 12 Norte 0 -- -- 90
2019-11-18 05:00:00 1.5 15 Norte 24 Noroeste 0 -- -- 89
2019-11-18 04:00:00 0.3 11 Noroeste 17 Noroeste 0 -- -- 92
2019-11-18 03:00:00 0.8 10 Noroeste 19 Noroeste 0 -- -- 89
2019-11-18 02:00:00 1.9 14 Noroeste 22 Noroeste 0 -- -- 88
2019-11-18 01:00:00 0.9 14 Noroeste 18 Oeste 0 -- -- 90
2019-11-18 00:00:00 0.9 10 Oeste 16 Oeste 0 -- -- 88
2019-11-17 23:00:00 1.5 9 Oeste 15 Oeste 0 -- -- 86
2019-11-17 22:00:00 1.5 6 Sudoeste 12 Sudoeste 0 -- -- 87
2019-11-17 21:00:00 2.9 6 Sudoeste 14 Oeste 0 -- -- 84
2019-11-17 20:00:00 4.3 8 Oeste 20 Noroeste 0 -- -- 81
2019-11-17 19:00:00 5.6 8 Oeste 26 Noroeste 0 -- -- 75
2019-11-17 18:00:00 8.6 24 Noroeste 31 Oeste 0 -- -- 64
2019-11-17 17:00:00 11.2 23 Oeste 38 Oeste 0 -- -- 59
2019-11-17 16:00:00 12.8 31 Oeste 48 Oeste 0 -- -- 59
2019-11-17 15:00:00 11.5 26 Oeste 41 Oeste 0 -- -- 73
2019-11-17 14:00:00 -- -- -- -- -- -- -- -- --
2019-11-17 13:00:00 8.7 25 Sudoeste 36 Sudoeste -- -- -- 88
2019-11-17 12:00:00 7.4 21 Sudoeste 37 Sudoeste 0 -- -- 92
2019-11-17 11:00:00 6.2 16 Sudoeste 28 Sudoeste 0.2 -- -- 94
2019-11-17 10:00:00 5.3 18 Sudoeste 26 Sudoeste 1 -- -- 94
2019-11-17 09:00:00 5.1 17 Sudoeste 25 Sudoeste 0 -- -- 93
2019-11-17 08:00:00 4.8 11 Sudoeste 22 Sur 0 -- -- 91
2019-11-17 07:00:00 4.5 16 Sudoeste 26 Sudoeste 0 -- -- 91
2019-11-17 06:00:00 4.4 13 Sudoeste 23 Sudoeste 0.2 -- -- 89
2019-11-17 05:00:00 4.4 12 Sudoeste 18 Sudoeste 0 -- -- 86
2019-11-17 04:00:00 4.1 10 Sudoeste 19 Sudoeste 0 -- -- 87
2019-11-17 03:00:00 2.5 9 Sudoeste 14 Sur 0 -- -- 90
2019-11-17 02:00:00 3.1 8 Sudoeste 23 Sudoeste 0 -- -- 87
2019-11-17 01:00:00 3.6 17 Sudoeste 26 Sudoeste 0 -- -- 86
2019-11-17 00:00:00 3.9 12 Sudoeste 24 Sudoeste 0 -- -- 80
2019-11-16 23:00:00 4.9 13 Sudoeste 21 Sudoeste 0 -- -- 76
2019-11-16 22:00:00 4.1 7 Sudoeste 17 Sudoeste 0 -- -- 79
2019-11-16 21:00:00 3.9 7 Sudoeste 11 Sudeste 0 -- -- 78
2019-11-16 20:00:00 3.9 4 Oeste 15 Oeste 0 -- -- 76
2019-11-16 19:00:00 4.9 17 Oeste 30 Oeste 0 -- -- 72
2019-11-16 18:00:00 6.4 19 Oeste 28 Sudoeste 0 -- -- 63
2019-11-16 17:00:00 9.7 7 Sudoeste 15 Sudoeste 0 -- -- 47
2019-11-16 16:00:00 10.2 8 Oeste 19 Oeste 0 -- -- 46
2019-11-16 15:00:00 8.7 15 Noroeste 29 Noroeste 0 -- -- 51
2019-11-16 14:00:00 9.1 19 Noroeste 30 Noroeste 0 -- -- 51
2019-11-16 13:00:00 8.8 17 Noroeste 28 Oeste 0 -- -- 57
2019-11-16 12:00:00 -- -- -- -- -- -- -- -- --
2019-11-16 11:00:00 4.4 6 Sur 13 Sur 0 -- -- 78
2019-11-16 10:00:00 1.9 6 Sudoeste 11 Sur 0 -- -- 83
2019-11-16 09:00:00 -0.9 2 Oeste 9 Sur 0 -- -- 90
2019-11-16 08:00:00 -2 6 Sur 9 Sur 0 -- -- 90
2019-11-16 07:00:00 -1.8 7 Sudoeste 12 Sudoeste 0 -- -- 91
2019-11-16 06:00:00 -1.4 5 Sudoeste 8 Sudoeste 0 -- -- 89
2019-11-16 05:00:00 -1.1 5 Oeste 9 Sudoeste 0 -- -- 88
2019-11-16 04:00:00 -1.2 5 Oeste 13 Oeste 0 -- -- 90
2019-11-16 03:00:00 -1.1 8 Oeste 12 Oeste 0 -- -- 90
2019-11-16 02:00:00 -0.7 9 Oeste 11 Oeste 0 -- -- 89
2019-11-16 01:00:00 -0.2 5 Noroeste 13 Oeste 0 -- -- 86
2019-11-16 00:00:00 1.1 6 Noroeste 18 Noroeste 0 -- -- 84